Time;durP1;ratioP1;P1;durP2;ratioP2;P2;SDS_P1;SDS_P2;PMS_P1;PMS_P2;Temp;Humidity;BMP_temperature;BMP_pressure;BME280_temperature;BME280_humidity;BME280_pressure;Samples;Min_cycle;Max_cycle;Signal;HPM_P1;HPM_P2
2022/12/08 00:00:11;;;;;;;28.05;11.93;;;;;;;2.05;69.81;98758.72;5121336;28;20043;-71
2022/12/08 00:03:01;;;;;;;29.13;11.95;;;;;;;2.13;69.65;98758.28;5119335;28;20058;-71
2022/12/08 00:12:11;;;;;;;30.55;12.10;;;;;;;1.99;69.28;98757.38;5118713;28;20077;-72
2022/12/08 00:15:02;;;;;;;25.45;12.13;;;;;;;1.82;68.25;98761.03;5120169;29;20051;-71
2022/12/08 00:17:52;;;;;;;27.00;12.55;;;;;;;1.75;69.82;98758.88;5121450;28;20086;-71
2022/12/08 00:20:43;;;;;;;27.55;12.43;;;;;;;1.86;69.25;98762.50;5123964;28;20074;-72
2022/12/08 00:23:33;;;;;;;27.63;11.90;;;;;;;1.73;69.31;98755.53;5095340;29;20152;-71
2022/12/08 00:26:23;;;;;;;26.48;11.80;;;;;;;1.62;69.12;98764.00;5122384;28;20066;-71
2022/12/08 00:29:13;;;;;;;26.20;11.85;;;;;;;1.78;69.81;98756.06;5127082;28;20058;-72
2022/12/08 00:32:06;;;;;;;25.20;11.82;;;;;;;1.86;69.17;98756.44;5117866;29;20054;-71
2022/12/08 00:34:57;;;;;;;22.52;10.65;;;;;;;1.86;69.77;98749.44;5105437;29;20098;-71
2022/12/08 00:37:47;;;;;;;24.35;11.23;;;;;;;1.84;69.46;98746.06;5122608;28;20165;-72
2022/12/08 00:40:42;;;;;;;22.85;10.85;;;;;;;1.98;69.86;98749.59;5122690;28;20175;-71
2022/12/08 00:43:31;;;;;;;24.85;11.55;;;;;;;2.02;69.50;98741.47;5122339;29;20047;-71
2022/12/08 00:46:21;;;;;;;25.13;11.50;;;;;;;1.99;70.12;98748.69;5122311;29;20102;-72
2022/12/08 00:49:13;;;;;;;22.73;10.82;;;;;;;1.91;70.40;98743.06;5122424;28;20063;-71
2022/12/08 00:52:04;;;;;;;20.92;10.23;;;;;;;1.96;70.19;98738.41;5129689;28;20074;-71
2022/12/08 00:54:55;;;;;;;26.48;11.45;;;;;;;1.99;70.49;98739.06;5126532;28;20063;-71
2022/12/08 00:57:45;;;;;;;31.13;13.48;;;;;;;2.03;70.82;98742.31;5123936;28;20454;-71
2022/12/08 01:00:35;;;;;;;25.70;11.77;;;;;;;2.07;70.82;98733.34;5106072;29;20504;-71
2022/12/08 01:03:25;;;;;;;24.13;11.80;;;;;;;2.07;70.23;98723.72;5122387;29;20078;-70
2022/12/08 01:06:15;;;;;;;26.88;12.20;;;;;;;2.18;70.12;98724.81;5125376;28;20430;-71
2022/12/08 01:09:07;;;;;;;31.98;11.95;;;;;;;2.22;69.86;98724.53;5120793;28;20070;-71
2022/12/08 01:11:57;;;;;;;29.15;11.98;;;;;;;2.25;69.92;98720.84;5115484;29;20157;-70
2022/12/08 01:14:47;;;;;;;29.83;12.13;;;;;;;2.31;70.62;98723.91;5122549;28;20655;-70
2022/12/08 01:17:37;;;;;;;30.55;12.18;;;;;;;2.36;70.19;98721.03;5121849;29;20050;-70
2022/12/08 01:20:28;;;;;;;27.48;12.20;;;;;;;2.30;69.96;98716.19;5121826;29;20066;-70
2022/12/08 01:23:18;;;;;;;23.13;10.93;;;;;;;2.19;70.30;98703.78;5121228;29;20645;-70
2022/12/08 01:26:11;;;;;;;27.25;11.00;;;;;;;2.23;70.39;98707.06;5128360;28;20082;-70
2022/12/08 01:29:01;;;;;;;26.83;11.80;;;;;;;2.35;70.23;98714.97;5120976;28;20047;-72
2022/12/08 01:31:51;;;;;;;27.35;11.27;;;;;;;2.32;69.41;98709.09;5106998;28;20091;-70
2022/12/08 01:34:41;;;;;;;27.42;11.40;;;;;;;2.42;69.26;98723.25;5121082;29;20141;-72
2022/12/08 01:37:31;;;;;;;28.50;11.00;;;;;;;2.30;69.30;98724.84;5121817;29;20074;-70
2022/12/08 01:40:21;;;;;;;21.13;10.35;;;;;;;2.25;69.64;98723.47;5109546;29;20514;-70
2022/12/08 01:43:17;;;;;;;26.95;11.07;;;;;;;2.17;69.83;98723.97;5126918;28;20050;-70
2022/12/08 01:46:07;;;;;;;23.15;10.73;;;;;;;1.88;69.54;98683.97;5124894;29;20133;-71
2022/12/08 01:49:07;;;;;;;26.40;11.70;;;;;;;2.01;69.64;98718.03;5121385;29;20077;-70
2022/12/08 01:52:25;;;;;;;24.50;9.93;;;;;;;1.84;70.05;98706.84;5123855;28;20053;-70
2022/12/08 01:55:21;;;;;;;25.65;11.25;;;;;;;1.74;69.12;98684.00;5133658;28;20074;-70
2022/12/08 01:58:20;;;;;;;22.02;10.88;;;;;;;1.76;69.76;98703.91;5125646;28;20059;-70
2022/12/08 02:01:11;;;;;;;21.33;10.00;;;;;;;1.81;69.71;98704.44;5127179;28;20121;-70
2022/12/08 02:04:03;;;;;;;21.02;9.50;;;;;;;1.72;69.43;98699.75;5128180;28;20059;-70
2022/12/08 02:06:53;;;;;;;21.38;9.40;;;;;;;1.68;69.57;98695.66;5133381;28;20058;-70
2022/12/08 02:09:45;;;;;;;22.25;9.95;;;;;;;1.61;70.01;98691.75;5125562;28;20053;-70
2022/12/08 02:12:35;;;;;;;21.20;9.60;;;;;;;1.59;69.38;98693.63;5130983;28;20564;-70
2022/12/08 02:15:35;;;;;;;30.13;11.52;;;;;;;1.59;70.77;98698.84;5122097;28;20115;-70
2022/12/08 02:19:03;;;;;;;34.78;12.98;;;;;;;1.91;70.14;98696.00;5117324;28;20078;-70
2022/12/08 02:22:30;;;;;;;26.90;11.70;;;;;;;1.81;70.77;98699.19;5123058;28;20054;-70
2022/12/08 02:25:49;;;;;;;29.80;11.75;;;;;;;1.62;69.88;98696.91;5124612;28;20114;-70
2022/12/08 02:29:01;;;;;;;22.13;10.02;;;;;;;1.46;71.30;98695.31;5102354;29;20639;-70
2022/12/08 02:32:15;;;;;;;23.40;10.73;;;;;;;1.53;70.61;98694.03;5120616;29;20512;-70
2022/12/08 02:35:24;;;;;;;24.67;10.90;;;;;;;1.47;69.97;98686.56;5104937;28;20083;-70
2022/12/08 02:38:48;;;;;;;25.40;11.50;;;;;;;1.37;70.12;98688.91;5110437;29;20047;-70
2022/12/08 02:42:11;;;;;;;23.10;10.93;;;;;;;1.29;70.31;98678.91;5122039;29;20051;-70
2022/12/08 02:45:13;;;;;;;25.50;10.32;;;;;;;1.14;69.89;98669.41;5115361;29;20060;-72
2022/12/08 02:48:04;;;;;;;24.45;10.63;;;;;;;1.39;69.45;98682.66;5111311;29;20055;-71
2022/12/08 02:50:54;;;;;;;22.92;10.38;;;;;;;1.23;69.93;98668.84;5118784;28;20062;-70
2022/12/08 02:53:45;;;;;;;26.02;11.55;;;;;;;1.34;70.42;98673.41;5122035;29;20194;-70
2022/12/08 02:57:14;;;;;;;25.27;11.05;;;;;;;1.22;70.08;98669.75;5123514;28;20198;-70
2022/12/08 03:00:05;;;;;;;25.92;10.60;;;;;;;1.20;70.42;98669.03;5123184;28;20066;-70
2022/12/08 03:03:06;;;;;;;27.90;11.00;;;;;;;1.28;70.04;98666.78;5111056;28;20053;-70
2022/12/08 03:06:12;;;;;;;23.95;10.30;;;;;;;1.25;70.02;98656.50;5118283;28;20050;-71
2022/12/08 03:09:23;;;;;;;24.80;10.82;;;;;;;1.05;69.77;98643.84;5119382;28;20445;-71
2022/12/08 03:12:21;;;;;;;25.77;10.40;;;;;;;0.94;72.09;98632.28;5106813;29;20058;-70
2022/12/08 03:15:17;;;;;;;30.52;12.95;;;;;;;1.25;71.93;98632.16;5122601;29;20050;-70
2022/12/08 03:18:10;;;;;;;30.48;13.38;;;;;;;1.30;71.90;98633.56;5124122;29;20051;-70
2022/12/08 03:21:00;;;;;;;31.90;13.40;;;;;;;1.54;70.19;98649.50;5117098;28;20557;-70
2022/12/08 03:23:55;;;;;;;31.40;13.15;;;;;;;1.36;69.95;98648.88;5123054;28;20063;-70
2022/12/08 03:26:59;;;;;;;28.63;12.52;;;;;;;1.07;70.04;98627.16;5121963;29;20137;-70
2022/12/08 03:29:52;;;;;;;30.92;12.52;;;;;;;1.10;70.54;98633.97;5124133;28;20418;-70
2022/12/08 03:32:46;;;;;;;26.70;11.60;;;;;;;1.02;69.86;98642.25;5111652;28;20490;-70
2022/12/08 03:35:39;;;;;;;26.52;11.98;;;;;;;0.91;69.71;98631.63;5104783;29;20061;-71
2022/12/08 03:38:40;;;;;;;26.00;11.27;;;;;;;0.91;70.50;98618.56;5125025;28;20202;-71
2022/12/08 03:41:30;;;;;;;24.83;10.68;;;;;;;1.08;70.59;98615.75;5123608;28;20066;-71
2022/12/08 03:44:20;;;;;;;21.85;9.70;;;;;;;1.21;69.74;98615.84;5109103;29;20066;-70
2022/12/08 03:47:10;;;;;;;27.17;10.68;;;;;;;1.10;70.26;98611.31;5120905;28;20544;-70
2022/12/08 03:50:00;;;;;;;25.30;10.00;;;;;;;0.96;70.27;98603.47;5108252;29;20054;-71
2022/12/08 03:52:50;;;;;;;25.58;10.20;;;;;;;1.09;70.59;98620.06;5130904;28;20100;-71
2022/12/08 03:55:40;;;;;;;21.58;9.43;;;;;;;1.09;69.60;98614.84;5122191;29;20186;-69
2022/12/08 03:58:30;;;;;;;23.38;10.68;;;;;;;0.98;70.26;98611.19;5121141;28;20055;-70
2022/12/08 04:01:26;;;;;;;23.73;10.23;;;;;;;0.90;69.70;98609.91;5116562;28;20051;-71
2022/12/08 04:04:17;;;;;;;22.95;11.05;;;;;;;0.79;69.20;98603.63;5122550;28;20420;-71
2022/12/08 04:07:07;;;;;;;29.65;11.13;;;;;;;0.73;69.18;98601.38;5113884;28;20054;-70
2022/12/08 04:09:57;;;;;;;25.55;11.27;;;;;;;0.63;71.01;98603.69;5135151;28;20130;-70
2022/12/08 04:12:47;;;;;;;32.08;13.75;;;;;;;0.63;70.88;98612.41;5123309;29;20055;-70
2022/12/08 04:15:38;;;;;;;33.97;14.52;;;;;;;0.62;70.18;98607.25;5118016;29;20055;-70
2022/12/08 04:18:28;;;;;;;35.55;14.82;;;;;;;0.41;70.93;98601.53;5120369;28;20128;-70
2022/12/08 04:21:18;;;;;;;30.27;13.88;;;;;;;0.51;71.32;98601.84;5108087;28;20063;-70
2022/12/08 04:24:08;;;;;;;38.10;13.65;;;;;;;0.50;70.23;98600.13;5123330;29;20058;-71
2022/12/08 04:26:58;;;;;;;30.85;13.10;;;;;;;0.57;70.29;98598.88;5120427;29;20528;-70
2022/12/08 04:29:48;;;;;;;31.27;13.13;;;;;;;0.65;70.97;98604.47;5110383;29;20713;-70
2022/12/08 04:32:38;;;;;;;28.83;13.13;;;;;;;0.59;70.96;98595.22;5121963;28;20178;-71
2022/12/08 04:35:36;;;;;;;31.95;12.52;;;;;;;0.65;71.06;98597.47;5103471;28;20062;-71
2022/12/08 04:38:26;;;;;;;29.70;12.70;;;;;;;0.59;70.80;98604.81;5105750;28;20121;-71
2022/12/08 04:41:16;;;;;;;36.63;14.35;;;;;;;0.56;71.06;98599.78;5125113;28;20058;-71
2022/12/08 04:44:06;;;;;;;31.90;13.23;;;;;;;0.66;71.34;98588.72;5114940;29;20102;-71
2022/12/08 04:46:55;;;;;;;30.42;13.40;;;;;;;0.69;70.89;98585.06;5114413;29;20506;-71
2022/12/08 04:49:46;;;;;;;35.15;13.48;;;;;;;0.57;71.17;98585.84;5108053;28;20047;-71
2022/12/08 04:52:36;;;;;;;27.85;11.77;;;;;;;0.56;70.97;98569.31;5122487;29;20051;-71
2022/12/08 04:55:26;;;;;;;36.55;14.25;;;;;;;0.84;73.28;98576.34;5114815;29;20058;-70
2022/12/08 04:58:19;;;;;;;28.73;13.88;;;;;;;1.45;70.56;98576.91;5120384;28;20050;-71
2022/12/08 05:01:09;;;;;;;34.85;15.00;;;;;;;1.25;72.48;98572.94;5122283;28;20497;-70
2022/12/08 05:03:59;;;;;;;38.25;15.95;;;;;;;1.05;72.12;98547.22;5125220;28;20054;-71
2022/12/08 05:06:49;;;;;;;37.35;15.70;;;;;;;1.40;72.21;98581.59;5117740;29;20099;-71
2022/12/08 05:09:39;;;;;;;37.33;15.38;;;;;;;1.55;72.05;98579.78;5104112;29;20067;-71
2022/12/08 05:12:29;;;;;;;39.05;15.00;;;;;;;1.49;71.40;98572.31;5119322;29;20066;-71
2022/12/08 05:15:19;;;;;;;39.05;15.95;;;;;;;1.50;71.94;98568.81;5123391;28;20057;-71
2022/12/08 05:18:10;;;;;;;37.78;16.02;;;;;;;1.29;71.96;98552.69;5116999;29;20047;-70
2022/12/08 05:21:01;;;;;;;40.95;16.50;;;;;;;1.50;71.10;98576.63;5117450;28;20058;-71
2022/12/08 05:23:51;;;;;;;36.25;16.05;;;;;;;1.41;70.53;98570.22;5122917;28;20051;-71
2022/12/08 05:26:41;;;;;;;37.30;14.93;;;;;;;1.25;70.86;98572.94;5116082;29;20114;-71
2022/12/08 05:29:31;;;;;;;40.28;14.70;;;;;;;1.11;70.47;98563.34;5123859;28;20513;-71
2022/12/08 05:32:21;;;;;;;40.28;15.10;;;;;;;0.87;72.25;98572.69;5121070;29;20058;-70
2022/12/08 05:35:11;;;;;;;35.67;14.63;;;;;;;1.01;70.63;98567.47;5124240;28;20051;-70
2022/12/08 05:38:01;;;;;;;32.47;13.82;;;;;;;0.99;70.68;98574.53;5121644;29;20048;-72
2022/12/08 05:40:51;;;;;;;30.42;13.10;;;;;;;0.94;71.09;98568.78;5109228;29;20130;-71
2022/12/08 05:43:41;;;;;;;33.10;14.10;;;;;;;0.91;71.31;98580.25;5122388;28;20494;-71
2022/12/08 05:46:32;;;;;;;31.08;13.85;;;;;;;0.93;71.75;98582.78;5105125;29;20453;-71
2022/12/08 05:49:22;;;;;;;34.97;14.13;;;;;;;1.09;71.15;98583.53;5121357;29;20525;-71
2022/12/08 05:52:12;;;;;;;34.15;14.20;;;;;;;0.92;71.43;98553.19;5121105;29;20058;-70
2022/12/08 05:55:02;;;;;;;33.70;14.10;;;;;;;1.08;72.13;98560.09;5115729;29;20057;-71
2022/12/08 05:57:52;;;;;;;37.83;14.55;;;;;;;1.60;69.94;98569.88;5116045;28;20428;-71
2022/12/08 06:00:42;;;;;;;38.55;14.55;;;;;;;1.31;70.79;98556.88;5096803;29;20433;-71
2022/12/08 06:03:32;;;;;;;39.97;15.52;;;;;;;1.72;69.90;98569.09;5119171;29;20126;-70
2022/12/08 06:06:22;;;;;;;40.70;15.25;;;;;;;1.59;70.63;98565.56;5124437;28;20053;-71
2022/12/08 06:09:13;;;;;;;39.97;14.80;;;;;;;1.53;70.42;98558.16;5121694;28;20413;-73
2022/12/08 06:12:03;;;;;;;41.55;15.65;;;;;;;1.40;70.87;98560.72;5121453;29;20073;-71
2022/12/08 06:14:53;;;;;;;47.67;16.75;;;;;;;1.57;70.78;98562.25;5114254;29;20058;-71
2022/12/08 06:17:43;;;;;;;44.08;17.27;;;;;;;1.62;69.91;98565.38;5092861;29;20445;-71
2022/12/08 06:20:33;;;;;;;36.78;15.40;;;;;;;1.57;71.33;98563.06;5124143;28;20190;-71
2022/12/08 06:23:23;;;;;;;39.55;15.70;;;;;;;1.67;70.10;98558.09;5123295;28;20497;-71
2022/12/08 06:26:14;;;;;;;42.17;15.80;;;;;;;1.60;70.42;98548.97;5113085;28;20058;-72
2022/12/08 06:29:04;;;;;;;35.92;15.23;;;;;;;1.63;70.47;98560.06;5119219;28;20545;-70
2022/12/08 06:31:54;;;;;;;41.30;15.57;;;;;;;1.43;70.61;98560.50;5119502;28;20051;-74
2022/12/08 06:34:44;;;;;;;35.40;14.40;;;;;;;1.40;70.53;98560.72;5127179;28;20141;-73
2022/12/08 06:37:35;;;;;;;35.80;14.85;;;;;;;1.48;71.15;98568.03;5137742;28;20158;-70
2022/12/08 06:40:25;;;;;;;39.95;15.52;;;;;;;1.60;70.47;98568.09;5142107;28;20094;-74
2022/12/08 06:43:15;;;;;;;41.72;21.30;;;;;;;1.48;70.71;98561.03;5128863;28;20101;-73
2022/12/08 06:46:07;;;;;;;36.83;15.55;;;;;;;1.22;70.74;98520.06;5122775;28;20197;-74
2022/12/08 06:48:57;;;;;;;30.40;14.23;;;;;;;1.51;70.79;98563.47;5137035;28;20181;-74
2022/12/08 06:51:47;;;;;;;29.35;14.50;;;;;;;1.48;70.49;98560.22;5143150;28;20745;-76
2022/12/08 06:54:37;;;;;;;38.78;15.57;;;;;;;1.55;70.75;98579.78;5127534;28;20055;-72
2022/12/08 06:57:27;;;;;;;35.70;15.70;;;;;;;1.57;70.17;98580.53;5138533;28;20059;-74
2022/12/08 07:00:17;;;;;;;42.17;15.40;;;;;;;1.62;70.00;98578.44;5142380;28;20055;-73
2022/12/08 07:03:09;;;;;;;33.88;14.80;;;;;;;1.33;70.51;98544.59;5141398;28;20057;-72
2022/12/08 07:06:00;;;;;;;35.78;15.48;;;;;;;1.50;70.16;98561.78;5127124;28;20077;-72
2022/12/08 07:08:53;;;;;;;30.48;14.05;;;;;;;1.56;70.15;98573.63;5142314;28;20541;-71
2022/12/08 07:11:44;;;;;;;30.17;14.00;;;;;;;1.57;70.46;98565.69;5138256;28;20093;-69
2022/12/08 07:14:34;;;;;;;35.03;14.55;;;;;;;1.58;70.20;98575.19;5133986;28;20058;-69
2022/12/08 07:17:24;;;;;;;30.98;13.38;;;;;;;1.63;70.43;98578.38;5132902;28;20545;-69
2022/12/08 07:20:15;;;;;;;38.35;14.82;;;;;;;1.65;69.66;98575.66;5132302;28;20069;-70
2022/12/08 07:23:05;;;;;;;31.77;13.70;;;;;;;1.73;70.29;98575.19;5133770;28;20074;-69
2022/12/08 07:25:59;;;;;;;37.55;15.02;;;;;;;1.70;69.58;98568.38;5134406;28;20126;-69
2022/12/08 07:28:49;;;;;;;32.38;13.75;;;;;;;1.78;70.35;98570.47;5129443;28;20058;-69
2022/12/08 07:31:39;;;;;;;43.15;14.77;;;;;;;1.82;69.87;98578.03;5129750;28;20062;-71
2022/12/08 07:34:30;;;;;;;32.15;13.75;;;;;;;1.97;69.59;98580.59;5131017;28;20221;-69
2022/12/08 07:37:20;;;;;;;34.33;14.80;;;;;;;1.96;69.94;98578.91;5121075;28;20066;-70
2022/12/08 07:40:10;;;;;;;35.20;13.73;;;;;;;2.02;69.90;98574.13;5106578;28;20051;-70
2022/12/08 07:43:01;;;;;;;33.33;14.15;;;;;;;2.03;69.63;98578.41;5118674;28;20070;-70
2022/12/08 07:45:51;;;;;;;31.40;14.07;;;;;;;1.92;69.62;98577.41;5118346;28;20050;-70
2022/12/08 07:48:41;;;;;;;34.92;14.57;;;;;;;2.12;69.16;98576.97;5118192;28;20138;-70
2022/12/08 07:51:31;;;;;;;33.63;15.18;;;;;;;2.15;69.24;98573.28;5109875;28;20153;-69
2022/12/08 07:54:22;;;;;;;32.10;14.80;;;;;;;1.97;68.05;98543.97;5121940;28;20102;-70
2022/12/08 07:57:13;;;;;;;33.67;15.32;;;;;;;2.17;69.33;98576.66;5126625;28;20065;-69
2022/12/08 08:00:04;;;;;;;31.98;14.13;;;;;;;1.93;68.82;98563.44;5112138;28;20058;-70
2022/12/08 08:03:01;;;;;;;32.70;14.68;;;;;;;1.92;69.56;98564.34;5125669;28;20051;-69
2022/12/08 08:05:52;;;;;;;34.63;15.30;;;;;;;1.99;69.24;98574.31;5127908;28;20070;-70
2022/12/08 08:08:42;;;;;;;33.50;15.85;;;;;;;1.81;69.56;98549.38;5120503;28;20062;-69
2022/12/08 08:11:32;;;;;;;69.65;22.92;;;;;;;2.06;69.37;98564.31;5120251;28;20068;-70
2022/12/08 08:14:23;;;;;;;35.63;15.82;;;;;;;2.15;68.48;98555.81;5118960;28;20062;-71
2022/12/08 08:17:12;;;;;;;34.35;13.85;;;;;;;2.18;68.87;98566.09;5118741;28;20101;-70
2022/12/08 08:20:07;;;;;;;34.25;14.98;;;;;;;2.10;68.15;98558.75;5123342;28;20469;-71
2022/12/08 08:22:57;;;;;;;28.17;13.63;;;;;;;2.01;69.43;98554.13;5120904;28;20062;-70
2022/12/08 08:25:47;;;;;;;33.33;14.32;;;;;;;2.04;69.22;98543.47;5123312;28;20484;-70
2022/12/08 08:28:37;;;;;;;32.55;14.20;;;;;;;2.24;68.31;98563.06;5129308;28;21868;-69
2022/12/08 08:31:28;;;;;;;27.75;13.07;;;;;;;2.26;68.04;98555.97;5133199;28;20055;-70
2022/12/08 08:34:18;;;;;;;31.20;14.25;;;;;;;2.10;68.53;98534.38;5128126;28;20057;-70
2022/12/08 08:37:08;;;;;;;29.95;13.18;;;;;;;2.35;68.40;98555.34;5118189;28;20051;-71
2022/12/08 08:39:59;;;;;;;34.35;14.40;;;;;;;2.29;67.26;98542.69;5107136;28;20557;-70
2022/12/08 08:42:49;;;;;;;33.47;14.35;;;;;;;2.25;67.93;98541.22;5099101;28;20059;-71
2022/12/08 08:45:39;;;;;;;32.97;14.48;;;;;;;2.51;67.90;98556.91;5114051;28;20109;-71
2022/12/08 08:48:30;;;;;;;36.15;14.40;;;;;;;2.44;68.00;98539.97;5107320;28;20173;-70
2022/12/08 08:51:20;;;;;;;33.38;14.02;;;;;;;2.33;68.41;98562.47;5125307;28;20613;-70
2022/12/08 08:54:11;;;;;;;32.72;15.25;;;;;;;2.45;68.74;98567.78;5110985;28;20564;-70
2022/12/08 08:57:01;;;;;;;29.23;14.57;;;;;;;2.72;67.35;98552.84;5108042;28;20042;-71
2022/12/08 08:59:51;;;;;;;34.63;13.93;;;;;;;2.88;67.07;98560.50;5121738;28;20548;-70
2022/12/08 09:02:41;;;;;;;31.67;14.00;;;;;;;2.72;67.43;98558.09;5115849;28;20054;-70
2022/12/08 09:05:31;;;;;;;32.75;14.25;;;;;;;2.99;66.67;98565.81;5126429;28;20070;-71
2022/12/08 09:08:22;;;;;;;31.23;14.27;;;;;;;3.00;66.12;98550.94;5127528;28;20055;-70
2022/12/08 09:11:13;;;;;;;28.88;13.70;;;;;;;3.12;66.18;98549.25;5135740;28;20054;-70
2022/12/08 09:14:03;;;;;;;36.38;15.10;;;;;;;3.20;65.94;98539.06;5133528;28;20555;-70
2022/12/08 09:16:53;;;;;;;28.88;13.00;;;;;;;3.10;66.15;98543.28;5132820;28;20529;-70
2022/12/08 09:19:43;;;;;;;29.25;13.90;;;;;;;3.20;65.43;98546.91;5132632;28;20747;-70
2022/12/08 09:22:33;;;;;;;31.00;13.00;;;;;;;2.79;67.09;98538.41;5136460;28;20552;-71
2022/12/08 09:25:23;;;;;;;28.52;13.07;;;;;;;2.80;67.39;98540.06;5127673;28;20059;-70
2022/12/08 09:28:13;;;;;;;37.05;14.75;;;;;;;2.72;67.97;98541.56;5127717;28;20487;-70
2022/12/08 09:31:03;;;;;;;31.58;13.93;;;;;;;2.76;67.10;98522.91;5127388;28;20061;-70
2022/12/08 09:33:56;;;;;;;30.27;13.70;;;;;;;2.57;68.04;98535.56;5123976;28;20066;-70
2022/12/08 09:36:46;;;;;;;31.20;13.88;;;;;;;3.09;67.16;98544.22;5114924;28;20061;-70
2022/12/08 09:39:36;;;;;;;31.05;14.20;;;;;;;2.89;67.07;98504.56;5132535;28;20050;-70
2022/12/08 09:42:48;;;;;;;28.13;13.35;;;;;;;3.09;66.33;98534.59;5128929;28;20059;-70
2022/12/08 09:45:38;;;;;;;29.88;13.68;;;;;;;3.35;65.73;98543.22;5131304;28;20125;-71
2022/12/08 09:48:34;;;;;;;32.05;13.07;;;;;;;3.03;66.13;98533.22;5129096;28;20085;-71
2022/12/08 09:51:34;;;;;;;27.02;12.55;;;;;;;2.81;67.34;98526.03;5111896;28;20209;-71
2022/12/08 09:54:34;;;;;;;31.25;13.40;;;;;;;2.81;68.00;98523.44;5126049;28;20069;-71
2022/12/08 09:57:24;;;;;;;28.35;11.93;;;;;;;3.09;68.30;98524.09;5125926;28;20068;-71
2022/12/08 10:00:15;;;;;;;28.90;12.95;;;;;;;2.74;67.88;98498.59;5124294;28;20039;-70
2022/12/08 10:03:10;;;;;;;30.77;12.93;;;;;;;3.03;67.43;98508.81;5125501;28;20090;-71
2022/12/08 10:06:20;;;;;;;26.23;12.75;;;;;;;3.17;66.90;98507.84;5122565;28;20057;-71
2022/12/08 10:09:29;;;;;;;;;;;;;;;2.48;68.22;98499.56;5140242;28;20122;-71
2022/12/08 10:12:37;;;;;;;27.90;12.68;;;;;;;2.70;68.03;98507.59;5128073;28;20012;-70
2022/12/08 10:15:38;;;;;;;28.02;12.90;;;;;;;2.96;66.82;98497.94;5134115;28;20061;-71
2022/12/08 10:18:31;;;;;;;27.05;13.25;;;;;;;3.55;66.12;98499.84;5128474;28;20054;-70
2022/12/08 10:21:25;;;;;;;26.13;12.65;;;;;;;3.66;66.12;98492.03;5115589;28;20109;-71
2022/12/08 10:24:30;;;;;;;29.55;12.70;;;;;;;3.75;65.29;98490.53;5120247;28;20070;-70
2022/12/08 10:27:21;;;;;;;24.75;12.27;;;;;;;3.68;66.60;98469.16;5118815;28;20066;-70
2022/12/08 10:30:14;;;;;;;25.33;12.13;;;;;;;3.36;66.69;98482.00;5121325;28;20054;-70
2022/12/08 10:33:12;;;;;;;27.80;11.45;;;;;;;3.26;66.49;98475.75;5113023;28;20169;-73
2022/12/08 10:36:03;;;;;;;26.30;12.20;;;;;;;3.21;67.05;98480.47;5119688;28;20062;-70
2022/12/08 10:38:54;;;;;;;23.75;12.05;;;;;;;3.19;67.09;98475.34;5125681;28;20061;-69
2022/12/08 10:41:44;;;;;;;23.35;12.23;;;;;;;3.77;67.19;98457.13;5122165;28;20113;-69
2022/12/08 10:44:58;;;;;;;24.00;12.23;;;;;;;3.90;66.74;98467.56;5111989;28;20065;-71
2022/12/08 10:48:14;;;;;;;31.52;11.98;;;;;;;4.32;64.93;98467.88;5124198;28;20058;-70
2022/12/08 10:51:04;;;;;;;23.55;11.48;;;;;;;4.15;64.63;98466.56;5121446;28;20137;-70
2022/12/08 10:53:55;;;;;;;26.58;11.05;;;;;;;4.15;65.32;98461.31;5119660;28;20541;-70
2022/12/08 10:56:54;;;;;;;26.77;12.23;;;;;;;3.73;66.61;98464.41;5139768;28;20051;-70
2022/12/08 10:59:44;;;;;;;30.67;11.57;;;;;;;3.77;64.34;98425.66;5124163;28;20053;-69
2022/12/08 11:02:33;;;;;;;25.55;11.43;;;;;;;3.68;65.75;98455.22;5132104;28;20065;-71
2022/12/08 11:05:32;;;;;;;23.20;11.18;;;;;;;4.20;64.86;98446.88;5137389;28;20082;-71
2022/12/08 11:08:22;;;;;;;24.08;10.82;;;;;;;4.02;64.08;98444.81;5146929;28;20141;-70
2022/12/08 11:11:13;;;;;;;23.98;11.27;;;;;;;4.22;63.93;98439.72;5139698;28;20086;-69
2022/12/08 11:14:07;;;;;;;22.95;10.65;;;;;;;4.48;62.99;98426.38;5112154;28;20063;-70
2022/12/08 11:17:11;;;;;;;22.77;10.45;;;;;;;4.72;62.59;98424.44;5134489;28;20050;-68
2022/12/08 11:20:07;;;;;;;21.90;11.35;;;;;;;4.40;63.41;98407.75;5126442;28;20393;-71
2022/12/08 11:22:58;;;;;;;25.10;10.57;;;;;;;4.36;63.66;98424.69;5124458;28;20062;-71
2022/12/08 11:25:51;;;;;;;22.58;11.27;;;;;;;4.51;63.34;98418.28;5131034;28;20043;-72
2022/12/08 11:28:42;;;;;;;24.92;10.85;;;;;;;4.60;63.33;98408.81;5130878;28;20517;-69
2022/12/08 11:31:38;;;;;;;21.95;10.98;;;;;;;4.76;62.98;98414.53;5113158;28;20185;-70
2022/12/08 11:34:37;;;;;;;19.45;10.43;;;;;;;4.71;62.45;98401.78;5127296;28;20047;-70
2022/12/08 11:37:34;;;;;;;23.33;11.10;;;;;;;5.09;62.18;98397.88;5125342;28;20149;-70
2022/12/08 11:40:34;;;;;;;20.00;9.88;;;;;;;5.05;61.72;98403.50;5133869;28;20043;-69
2022/12/08 11:43:33;;;;;;;28.65;10.43;;;;;;;5.25;60.71;98394.00;5124654;28;20050;-68
2022/12/08 11:46:49;;;;;;;24.20;11.43;;;;;;;5.42;60.60;98398.72;5135854;28;20113;-70
2022/12/08 11:49:41;;;;;;;23.15;10.40;;;;;;;5.33;60.58;98396.84;5139824;28;20767;-69
2022/12/08 11:52:50;;;;;;;22.63;9.60;;;;;;;5.59;59.35;98385.00;5126226;28;20078;-71
2022/12/08 11:55:59;;;;;;;17.98;9.45;;;;;;;5.62;58.96;98387.38;5132231;28;20057;-70
2022/12/08 11:58:55;;;;;;;20.38;8.98;;;;;;;5.62;58.61;98387.38;5139919;28;20469;-70
2022/12/08 12:01:45;;;;;;;23.45;9.05;;;;;;;5.88;57.26;98387.84;5117309;28;20506;-71
2022/12/08 12:04:49;;;;;;;19.20;9.00;;;;;;;5.99;57.76;98389.59;5093976;28;20101;-71
2022/12/08 12:08:01;;;;;;;23.38;9.73;;;;;;;6.00;58.43;98393.91;5116245;28;20054;-72
2022/12/08 12:15:28;;;;;;;18.50;9.20;;;;;;;6.00;58.91;98395.72;5125926;28;20049;-72
2022/12/08 12:18:31;;;;;;;18.88;8.68;;;;;;;5.86;58.74;98381.03;5117147;28;20251;-72
2022/12/08 12:21:30;;;;;;;16.88;8.68;;;;;;;5.62;57.89;98362.88;5121739;28;20085;-73
2022/12/08 12:24:25;;;;;;;18.23;8.32;;;;;;;5.72;58.48;98376.09;5110349;28;20586;-70
2022/12/08 12:27:38;;;;;;;17.58;8.70;;;;;;;5.75;57.52;98363.53;5122620;28;20057;-72
2022/12/08 12:30:52;;;;;;;14.13;7.65;;;;;;;5.84;57.38;98359.28;5094062;28;20053;-71
2022/12/08 12:33:45;;;;;;;21.70;9.25;;;;;;;5.88;58.19;98358.91;5106035;28;20061;-71
2022/12/08 12:36:48;;;;;;;16.10;9.25;;;;;;;5.99;58.63;98352.75;5111754;28;20061;-71
2022/12/08 12:39:49;;;;;;;18.60;8.90;;;;;;;5.97;58.24;98362.59;5124235;28;20066;-71
2022/12/08 12:43:04;;;;;;;18.52;8.73;;;;;;;5.89;57.88;98367.63;5111593;28;20063;-71
2022/12/08 12:46:26;;;;;;;20.08;8.63;;;;;;;5.87;58.05;98359.88;5117882;28;21088;-71
2022/12/08 12:49:39;;;;;;;20.65;8.73;;;;;;;6.02;58.55;98356.91;5112192;28;20564;-71
2022/12/08 12:52:32;;;;;;;25.77;9.07;;;;;;;6.06;58.05;98353.06;5107415;28;20164;-71
2022/12/08 12:55:23;;;;;;;16.17;8.00;;;;;;;6.03;58.10;98343.66;5118586;28;20069;-72
2022/12/08 12:58:41;;;;;;;20.30;10.75;;;;;;;6.07;56.91;98328.44;5115948;28;20088;-70
2022/12/08 13:02:01;;;;;;;18.65;9.95;;;;;;;6.14;57.00;98341.91;5126993;28;20560;-72
2022/12/08 13:05:14;;;;;;;16.17;8.68;;;;;;;6.18;55.77;98341.50;5120862;28;20139;-70
2022/12/08 13:08:20;;;;;;;24.25;8.75;;;;;;;6.05;57.27;98336.44;5124820;28;20510;-71
2022/12/08 13:11:10;;;;;;;19.70;9.40;;;;;;;5.99;58.52;98326.44;5122763;28;20536;-70
2022/12/08 13:14:03;;;;;;;17.35;8.20;;;;;;;6.11;56.37;98338.56;5132385;28;20043;-70
2022/12/08 13:16:56;;;;;;;14.95;7.70;;;;;;;6.05;57.12;98331.19;5126903;28;20116;-70
2022/12/08 13:19:49;;;;;;;16.40;8.63;;;;;;;6.15;57.04;98331.22;5123162;28;20109;-71
2022/12/08 13:22:53;;;;;;;16.98;8.93;;;;;;;6.11;58.25;98325.38;5105659;28;20053;-71
2022/12/08 13:25:43;;;;;;;24.65;10.30;;;;;;;6.20;57.82;98333.47;5132674;28;20121;-71
2022/12/08 13:28:33;;;;;;;17.45;8.48;;;;;;;6.04;58.31;98313.72;5106083;28;20433;-70
2022/12/08 13:31:38;;;;;;;18.50;8.88;;;;;;;6.06;58.76;98306.53;5117848;28;20067;-71
2022/12/08 13:34:54;;;;;;;21.55;8.13;;;;;;;6.47;56.78;98325.81;5119444;28;20569;-72
2022/12/08 13:37:48;;;;;;;14.52;7.63;;;;;;;6.23;57.35;98322.69;5106624;28;20170;-71
2022/12/08 13:40:45;;;;;;;18.95;8.60;;;;;;;6.20;57.65;98325.56;5121160;28;20055;-71
2022/12/08 13:43:43;;;;;;;16.38;7.93;;;;;;;6.16;57.05;98303.94;5099466;28;20058;-70